Time;durP1;ratioP1;P1;durP2;ratioP2;P2;SDS_P1;SDS_P2;PMS_P1;PMS_P2;Temp;Humidity;BMP_temperature;BMP_pressure;BME280_temperature;BME280_humidity;BME280_pressure;Samples;Min_cycle;Max_cycle;Signal;HPM_P1;HPM_P2
2022/07/28 00:00:40;;;;;;;;;;;;;;;;;;2211855;59;1299;-64
2022/07/28 00:03:16;;;;;;;;;;;;;;;;;;2210028;59;1207;-64
2022/07/28 00:05:49;;;;;;;;;;;;;;;;;;2210432;67;1263;-64
2022/07/28 00:08:22;;;;;;;;;;;;;;;;;;2210452;67;1062;-64
2022/07/28 00:10:55;;;;;;;;;;;;;;;;;;2210038;59;1972;-64
2022/07/28 00:13:28;;;;;;;;;;;;;;;;;;2210615;67;1217;-64
2022/07/28 00:16:01;;;;;;;;;;;;;;;;;;2209753;59;2040;-64
2022/07/28 00:18:37;;;;;;;;;;;;;;;;;;2210712;67;1182;-63
2022/07/28 00:21:10;;;;;;;;;;;;;;;;;;2209400;67;1101;-62
2022/07/28 00:23:43;;;;;;;;;;;;;;;;;;2210863;59;1237;-64
2022/07/28 00:26:16;;;;;;;;;;;;;;;;;;2210135;67;1094;-63
2022/07/28 00:28:49;;;;;;;;;;;;;;;;;;2206651;67;1716;-63
2022/07/28 00:31:23;;;;;;;;;;;;;;;;;;2209662;59;1937;-63
2022/07/28 00:33:58;;;;;;;;;;;;;;;;;;2209550;67;1214;-64
2022/07/28 00:36:32;;;;;;;;;;;;;;;;;;2209874;67;1208;-64
2022/07/28 00:39:05;;;;;;;;;;;;;;;;;;2209608;59;1903;-63
2022/07/28 00:41:38;;;;;;;;;;;;;;;;;;2210511;67;1182;-64
2022/07/28 00:44:11;;;;;;;;;;;;;;;;;;2209939;67;1215;-64
2022/07/28 00:46:44;;;;;;;;;;;;;;;;;;2210311;67;1231;-64
2022/07/28 00:49:21;;;;;;;;;;;;;;;;;;2209973;67;1116;-63
2022/07/28 00:51:55;;;;;;;;;;;;;;;;;;2209469;67;1939;-63
2022/07/28 00:54:28;;;;;;;;;;;;;;;;;;2210027;67;1172;-64
2022/07/28 00:57:01;;;;;;;;;;;;;;;;;;2209919;67;1146;-64
2022/07/28 00:59:34;;;;;;;;;;;;;;;;;;2210570;59;1634;-63
2022/07/28 01:02:07;;;;;;;;;;;;;;;;;;2209828;67;1105;-62
2022/07/28 01:04:43;;;;;;;;;;;;;;;;;;2210222;59;1324;-61
2022/07/28 01:07:20;;;;;;;;;;;;;;;;;;2209877;67;1103;-64
2022/07/28 01:09:58;;;;;;;;;;;;;;;;;;2209782;67;1279;-63
2022/07/28 01:12:35;;;;;;;;;;;;;;;;;;2209991;59;1295;-62
2022/07/28 01:15:14;;;;;;;;;;;;;;;;;;2209723;67;2087;-63
2022/07/28 01:17:52;;;;;;;;;;;;;;;;;;2209364;67;1237;-64
2022/07/28 01:20:32;;;;;;;;;;;;;;;;;;2209707;67;1184;-62
2022/07/28 01:23:35;;;;;;;;;;;;;;;;;;2209511;67;1304;-64
2022/07/28 01:26:20;;;;;;;;;;;;;;;;;;2193586;67;1199;-64
2022/07/28 01:29:01;;;;;;;;;;;;;;;;;;2207842;67;1630;-62
2022/07/28 01:31:39;;;;;;;;;;;;;;;;;;2209094;59;1937;-64
2022/07/28 01:34:16;;;;;;;;;;;;;;;;;;2209754;67;1267;-63
2022/07/28 01:36:53;;;;;;;;;;;;;;;;;;2210340;59;1274;-64
2022/07/28 01:39:30;;;;;;;;;;;;;;;;;;2210288;59;2197;-61
2022/07/28 01:42:04;;;;;;;;;;;;;;;;;;2209357;59;1738;-64
2022/07/28 01:44:39;;;;;;;;;;;;;;;;;;2209189;67;1231;-64
2022/07/28 01:47:15;;;;;;;;;;;;;;;;;;2209123;67;1152;-64
2022/07/28 01:49:51;;;;;;;;;;;;;;;;;;2210345;67;1286;-62
2022/07/28 01:52:25;;;;;;;;;;;;;;;;;;2209834;67;1948;-62
2022/07/28 01:54:59;;;;;;;;;;;;;;;;;;2209975;67;1149;-62
2022/07/28 01:57:34;;;;;;;;;;;;;;;;;;2209239;59;1280;-64
2022/07/28 02:00:09;;;;;;;;;;;;;;;;;;2210220;67;1207;-63
2022/07/28 02:02:47;;;;;;;;;;;;;;;;;;2210436;59;1248;-64
2022/07/28 02:05:21;;;;;;;;;;;;;;;;;;2209910;67;1162;-64
2022/07/28 02:07:57;;;;;;;;;;;;;;;;;;2210147;67;1192;-63
2022/07/28 02:10:30;;;;;;;;;;;;;;;;;;2208888;67;1931;-63
2022/07/28 02:13:04;;;;;;;;;;;;;;;;;;2209606;67;1172;-63
2022/07/28 02:15:37;;;;;;;;;;;;;;;;;;2209412;59;1982;-64
2022/07/28 02:18:13;;;;;;;;;;;;;;;;;;2208978;67;1239;-62
2022/07/28 02:20:47;;;;;;;;;;;;;;;;;;2209666;67;1243;-64
2022/07/28 02:23:21;;;;;;;;;;;;;;;;;;2209701;67;1142;-63
2022/07/28 02:25:54;;;;;;;;;;;;;;;;;;2209506;67;1250;-61
2022/07/28 02:28:29;;;;;;;;;;;;;;;;;;2209762;67;1133;-64
2022/07/28 02:31:05;;;;;;;;;;;;;;;;;;2208460;67;1925;-64
2022/07/28 02:33:43;;;;;;;;;;;;;;;;;;2209877;67;1254;-62
2022/07/28 02:36:19;;;;;;;;;;;;;;;;;;2209400;59;1072;-62
2022/07/28 02:38:52;;;;;;;;;;;;;;;;;;2209986;59;1969;-62
2022/07/28 02:41:27;;;;;;;;;;;;;;;;;;2209929;67;1291;-64
2022/07/28 02:44:02;;;;;;;;;;;;;;;;;;2208426;59;1279;-64
2022/07/28 02:46:38;;;;;;;;;;;;;;;;;;2209592;67;1172;-64
2022/07/28 02:49:17;;;;;;;;;;;;;;;;;;2209453;67;1189;-64
2022/07/28 02:51:52;;;;;;;;;;;;;;;;;;2210275;67;1927;-62
2022/07/28 02:54:26;;;;;;;;;;;;;;;;;;2211797;53;3664;-75
2022/07/28 02:57:01;;;;;;;;;;;;;;;;;;2208977;67;1204;-75
2022/07/28 02:59:34;;;;;;;;;;;;;;;;;;2208532;67;1243;-76
2022/07/28 03:02:08;;;;;;;;;;;;;;;;;;2208756;59;1216;-75
2022/07/28 03:05:00;;;;;;;;;;;;;;;;;;2208431;59;2449;-76
2022/07/28 03:07:35;;;;;;;;;;;;;;;;;;2209367;53;3670;-53
2022/07/28 03:10:08;;;;;;;;;;;;;;;;;;2206387;67;1530;-56
2022/07/28 03:12:41;;;;;;;;;;;;;;;;;;2207020;59;1933;-53
2022/07/28 03:15:14;;;;;;;;;;;;;;;;;;2206569;59;1829;-53
2022/07/28 03:17:47;;;;;;;;;;;;;;;;;;2206574;67;1120;-53
2022/07/28 03:20:23;;;;;;;;;;;;;;;;;;2206687;67;1331;-53
2022/07/28 03:22:57;;;;;;;;;;;;;;;;;;2206614;59;1470;-59
2022/07/28 03:25:34;;;;;;;;;;;;;;;;;;2206493;67;1279;-53
2022/07/28 03:28:07;;;;;;;;;;;;;;;;;;2206111;67;1136;-58
2022/07/28 03:30:43;;;;;;;;;;;;;;;;;;2206789;67;1231;-53
2022/07/28 03:33:16;;;;;;;;;;;;;;;;;;2206305;67;1996;-53
2022/07/28 03:35:53;;;;;;;;;;;;;;;;;;2207056;59;1430;-52
2022/07/28 03:38:30;;;;;;;;;;;;;;;;;;2207054;59;1878;-57
2022/07/28 03:41:04;;;;;;;;;;;;;;;;;;2206692;67;1201;-54
2022/07/28 03:43:37;;;;;;;;;;;;;;;;;;2206770;67;1254;-52
2022/07/28 03:46:11;;;;;;;;;;;;;;;;;;2206331;67;1044;-53
2022/07/28 03:48:44;;;;;;;;;;;;;;;;;;2206928;67;1276;-53
2022/07/28 03:51:20;;;;;;;;;;;;;;;;;;2206333;67;1949;-53
2022/07/28 03:53:53;;;;;;;;;;;;;;;;;;2206296;67;1228;-53
2022/07/28 03:56:26;;;;;;;;;;;;;;;;;;2206382;67;1102;-53
2022/07/28 03:59:00;;;;;;;;;;;;;;;;;;2206744;67;1120;-56
2022/07/28 04:01:33;;;;;;;;;;;;;;;;;;2207142;67;1209;-53
2022/07/28 04:04:06;;;;;;;;;;;;;;;;;;2206548;59;1250;-53
2022/07/28 04:06:42;;;;;;;;;;;;;;;;;;2207263;59;1261;-53
2022/07/28 04:09:15;;;;;;;;;;;;;;;;;;2207301;67;1137;-53
2022/07/28 04:11:49;;;;;;;;;;;;;;;;;;2213025;67;1941;-53
2022/07/28 04:14:22;;;;;;;;;;;;;;;;;;2210957;67;1245;-55
2022/07/28 04:16:56;;;;;;;;;;;;;;;;;;2208865;59;1987;-52
2022/07/28 04:19:29;;;;;;;;;;;;;;;;;;2208325;67;1104;-52
2022/07/28 04:22:05;;;;;;;;;;;;;;;;;;2207635;67;1117;-53
2022/07/28 04:24:38;;;;;;;;;;;;;;;;;;2206814;67;1259;-52
2022/07/28 04:27:11;;;;;;;;;;;;;;;;;;2208698;67;1149;-52
2022/07/28 04:29:44;;;;;;;;;;;;;;;;;;2208862;67;1204;-55
2022/07/28 04:32:17;;;;;;;;;;;;;;;;;;2208052;67;1931;-52
2022/07/28 04:34:50;;;;;;;;;;;;;;;;;;2209047;59;1198;-54
2022/07/28 04:37:26;;;;;;;;;;;;;;;;;;2207681;59;1970;-53
2022/07/28 04:40:00;;;;;;;;;;;;;;;;;;2207354;59;1277;-53
2022/07/28 04:42:33;;;;;;;;;;;;;;;;;;2208276;59;1415;-54
2022/07/28 04:45:07;;;;;;;;;;;;;;;;;;2207143;67;1220;-53
2022/07/28 04:47:40;;;;;;;;;;;;;;;;;;2208638;67;1189;-53
2022/07/28 04:50:16;;;;;;;;;;;;;;;;;;2208218;67;1101;-53
2022/07/28 04:52:53;;;;;;;;;;;;;;;;;;2207925;67;1909;-52
2022/07/28 04:55:26;;;;;;;;;;;;;;;;;;2206513;67;1267;-53
2022/07/28 04:57:59;;;;;;;;;;;;;;;;;;2207059;67;1227;-53
2022/07/28 05:00:33;;;;;;;;;;;;;;;;;;2208344;67;1284;-53
2022/07/28 05:03:06;;;;;;;;;;;;;;;;;;2207162;59;1267;-53
2022/07/28 05:05:39;;;;;;;;;;;;;;;;;;2206673;67;1183;-53
2022/07/28 05:08:15;;;;;;;;;;;;;;;;;;2207095;59;1134;-53
2022/07/28 05:10:48;;;;;;;;;;;;;;;;;;2207652;59;1440;-53
2022/07/28 05:13:21;;;;;;;;;;;;;;;;;;2207591;67;1918;-54
2022/07/28 05:15:54;;;;;;;;;;;;;;;;;;2207519;59;2009;-53
2022/07/28 05:18:27;;;;;;;;;;;;;;;;;;2207687;67;1195;-53
2022/07/28 05:21:00;;;;;;;;;;;;;;;;;;2206965;67;1378;-57
2022/07/28 05:23:36;;;;;;;;;;;;;;;;;;2208362;67;1274;-53
2022/07/28 05:26:09;;;;;;;;;;;;;;;;;;2207000;67;1345;-53
2022/07/28 05:28:42;;;;;;;;;;;;;;;;;;2207372;67;1153;-54
2022/07/28 05:31:16;;;;;;;;;;;;;;;;;;2207365;59;1857;-53
2022/07/28 05:33:49;;;;;;;;;;;;;;;;;;2208170;67;1932;-53
2022/07/28 05:36:22;;;;;;;;;;;;;;;;;;2208450;67;1319;-53
2022/07/28 05:38:58;;;;;;;;;;;;;;;;;;2208902;59;1898;-54
2022/07/28 05:41:31;;;;;;;;;;;;;;;;;;2207164;67;1205;-53
2022/07/28 05:44:04;;;;;;;;;;;;;;;;;;2207367;67;1277;-53
2022/07/28 05:46:37;;;;;;;;;;;;;;;;;;2207369;67;1232;-53
2022/07/28 05:49:10;;;;;;;;;;;;;;;;;;2206996;67;1171;-53
2022/07/28 05:51:44;;;;;;;;;;;;;;;;;;2208069;67;1925;-53
2022/07/28 05:54:19;;;;;;;;;;;;;;;;;;2206790;67;1170;-53
2022/07/28 05:56:52;;;;;;;;;;;;;;;;;;2206460;59;1794;-53
2022/07/28 05:59:26;;;;;;;;;;;;;;;;;;2208117;59;1693;-53
2022/07/28 06:02:00;;;;;;;;;;;;;;;;;;2208634;67;1234;-53
2022/07/28 06:04:33;;;;;;;;;;;;;;;;;;2206745;59;1245;-53
2022/07/28 06:07:06;;;;;;;;;;;;;;;;;;2206446;59;1088;-53
2022/07/28 06:09:42;;;;;;;;;;;;;;;;;;2207492;67;1193;-54
2022/07/28 06:12:15;;;;;;;;;;;;;;;;;;2206751;67;1929;-53
2022/07/28 06:14:48;;;;;;;;;;;;;;;;;;2207162;67;1251;-53
2022/07/28 06:17:22;;;;;;;;;;;;;;;;;;2205994;59;2383;-53
2022/07/28 06:19:55;;;;;;;;;;;;;;;;;;2206770;67;1187;-53
2022/07/28 06:22:28;;;;;;;;;;;;;;;;;;2206401;67;1198;-53
2022/07/28 06:25:04;;;;;;;;;;;;;;;;;;2206616;67;1275;-54
2022/07/28 06:27:37;;;;;;;;;;;;;;;;;;2207397;67;1108;-57
2022/07/28 06:30:11;;;;;;;;;;;;;;;;;;2206715;59;1233;-53
2022/07/28 06:32:44;;;;;;;;;;;;;;;;;;2206392;60;1988;-54
2022/07/28 06:35:18;;;;;;;;;;;;;;;;;;2206229;67;1215;-53
2022/07/28 06:37:52;;;;;;;;;;;;;;;;;;2206726;59;2007;-53
2022/07/28 06:40:27;;;;;;;;;;;;;;;;;;2206381;67;1197;-58
2022/07/28 06:43:01;;;;;;;;;;;;;;;;;;2206284;67;1209;-53
2022/07/28 06:45:34;;;;;;;;;;;;;;;;;;2206907;67;1273;-53
2022/07/28 06:48:08;;;;;;;;;;;;;;;;;;2206687;67;1139;-53
2022/07/28 06:50:41;;;;;;;;;;;;;;;;;;2206750;67;1227;-53
2022/07/28 06:53:14;;;;;;;;;;;;;;;;;;2206497;67;1933;-53
2022/07/28 06:55:50;;;;;;;;;;;;;;;;;;2206574;67;1248;-56
2022/07/28 06:58:23;;;;;;;;;;;;;;;;;;2207280;67;1163;-53
2022/07/28 07:00:56;;;;;;;;;;;;;;;;;;2211709;67;1269;-53
2022/07/28 07:03:29;;;;;;;;;;;;;;;;;;2210480;59;1220;-53
2022/07/28 07:06:02;;;;;;;;;;;;;;;;;;2207043;59;1226;-53
2022/07/28 07:08:36;;;;;;;;;;;;;;;;;;2206115;59;1779;-53
2022/07/28 07:11:12;;;;;;;;;;;;;;;;;;2207576;59;1450;-53
2022/07/28 07:13:45;;;;;;;;;;;;;;;;;;2209095;67;1945;-53
2022/07/28 07:16:18;;;;;;;;;;;;;;;;;;2206535;67;2121;-56
2022/07/28 07:18:52;;;;;;;;;;;;;;;;;;2206627;67;1072;-53
2022/07/28 07:21:25;;;;;;;;;;;;;;;;;;2202835;67;1227;-53
2022/07/28 07:23:58;;;;;;;;;;;;;;;;;;2207507;67;1211;-57
2022/07/28 07:26:34;;;;;;;;;;;;;;;;;;2206001;67;1196;-55
2022/07/28 07:29:07;;;;;;;;;;;;;;;;;;2205858;67;2123;-54
2022/07/28 07:31:41;;;;;;;;;;;;;;;;;;2206339;67;1195;-55
2022/07/28 07:34:14;;;;;;;;;;;;;;;;;;2206383;67;1938;-53
2022/07/28 07:36:48;;;;;;;;;;;;;;;;;;2206810;67;1149;-55
2022/07/28 07:39:21;;;;;;;;;;;;;;;;;;2207067;59;2131;-53
2022/07/28 07:41:57;;;;;;;;;;;;;;;;;;2207833;59;1372;-55
2022/07/28 07:44:30;;;;;;;;;;;;;;;;;;2207331;67;1235;-54
2022/07/28 07:47:03;;;;;;;;;;;;;;;;;;2207584;59;1235;-59
2022/07/28 07:49:37;;;;;;;;;;;;;;;;;;2207546;67;1259;-55
2022/07/28 07:52:10;;;;;;;;;;;;;;;;;;2206681;67;1097;-54
2022/07/28 07:54:44;;;;;;;;;;;;;;;;;;2206492;59;1934;-54
2022/07/28 07:57:20;;;;;;;;;;;;;;;;;;2208373;67;1150;-54
2022/07/28 07:59:53;;;;;;;;;;;;;;;;;;2207663;67;1081;-55
2022/07/28 08:02:26;;;;;;;;;;;;;;;;;;2209019;67;1193;-53
2022/07/28 08:04:59;;;;;;;;;;;;;;;;;;2207112;59;1273;-53
2022/07/28 08:07:32;;;;;;;;;;;;;;;;;;2207064;59;1200;-55
2022/07/28 08:10:06;;;;;;;;;;;;;;;;;;2207071;67;1219;-53
2022/07/28 08:12:42;;;;;;;;;;;;;;;;;;2207146;59;1979;-54
2022/07/28 08:15:15;;;;;;;;;;;;;;;;;;2206637;59;2080;-54
2022/07/28 08:17:48;;;;;;;;;;;;;;;;;;2206842;67;1185;-56
2022/07/28 08:20:21;;;;;;;;;;;;;;;;;;2206872;67;1175;-57
2022/07/28 08:22:55;;;;;;;;;;;;;;;;;;2206917;67;1169;-56
2022/07/28 08:25:28;;;;;;;;;;;;;;;;;;2206689;67;1223;-54
2022/07/28 08:28:04;;;;;;;;;;;;;;;;;;2206932;67;1149;-55
2022/07/28 08:30:38;;;;;;;;;;;;;;;;;;2206588;59;1630;-56
2022/07/28 08:33:11;;;;;;;;;;;;;;;;;;2209130;67;1956;-54
2022/07/28 08:35:44;;;;;;;;;;;;;;;;;;2205818;67;1558;-54
2022/07/28 08:38:18;;;;;;;;;;;;;;;;;;2204157;59;2199;-54
2022/07/28 08:40:53;;;;;;;;;;;;;;;;;;2207387;60;1117;-58
2022/07/28 08:43:32;;;;;;;;;;;;;;;;;;2207458;67;1295;-54
2022/07/28 08:46:06;;;;;;;;;;;;;;;;;;2207166;59;1104;-53
2022/07/28 08:48:41;;;;;;;;;;;;;;;;;;2207295;67;1202;-55
2022/07/28 08:51:14;;;;;;;;;;;;;;;;;;2207575;59;1509;-54
2022/07/28 08:53:48;;;;;;;;;;;;;;;;;;2207139;67;2000;-54
2022/07/28 08:56:22;;;;;;;;;;;;;;;;;;2207241;67;1626;-55
2022/07/28 08:58:59;;;;;;;;;;;;;;;;;;2207229;67;1268;-54
2022/07/28 09:01:32;;;;;;;;;;;;;;;;;;2207517;67;1274;-56
2022/07/28 09:04:05;;;;;;;;;;;;;;;;;;2209411;53;2081;-76
2022/07/28 09:06:41;;;;;;;;;;;;;;;;;;2206267;67;1285;-75
2022/07/28 09:09:14;;;;;;;;;;;;;;;;;;2203603;67;1173;-76
2022/07/28 09:11:47;;;;;;;;;;;;;;;;;;2203022;59;1333;-76
2022/07/28 09:14:23;;;;;;;;;;;;;;;;;;2203052;67;1932;-76
2022/07/28 09:19:28;;;;;;;;;;;;;;;;;;2205203;59;1798;-65
2022/07/28 09:22:02;;;;;;;;;;;;;;;;;;2206320;67;1301;-65
2022/07/28 09:24:37;;;;;;;;;;;;;;;;;;2206533;59;1605;-64
2022/07/28 09:27:12;;;;;;;;;;;;;;;;;;2206280;67;1107;-64
2022/07/28 09:29:50;;;;;;;;;;;;;;;;;;2206150;67;1203;-65
2022/07/28 09:32:23;;;;;;;;;;;;;;;;;;2205973;59;1215;-65
2022/07/28 09:34:56;;;;;;;;;;;;;;;;;;2206135;67;1931;-65
2022/07/28 09:37:29;;;;;;;;;;;;;;;;;;2205411;59;1924;-62
2022/07/28 09:40:11;;;;;;;;;;;;;;;;;;2205881;67;1183;-63
2022/07/28 09:42:48;;;;;;;;;;;;;;;;;;2206300;67;1109;-64
2022/07/28 09:45:28;;;;;;;;;;;;;;;;;;2205134;67;1265;-65
2022/07/28 09:48:12;;;;;;;;;;;;;;;;;;2205530;67;1266;-64
2022/07/28 09:50:45;;;;;;;;;;;;;;;;;;2207814;59;1250;-64
2022/07/28 09:53:22;;;;;;;;;;;;;;;;;;2205196;59;1929;-65
2022/07/28 09:55:56;;;;;;;;;;;;;;;;;;2205578;67;1590;-64
2022/07/28 09:58:29;;;;;;;;;;;;;;;;;;2206191;67;1107;-63
2022/07/28 10:01:12;;;;;;;;;;;;;;;;;;2205476;67;1121;-64
2022/07/28 10:03:50;;;;;;;;;;;;;;;;;;2205559;59;1227;-64
2022/07/28 10:06:28;;;;;;;;;;;;;;;;;;2208102;67;1226;-65
2022/07/28 10:09:02;;;;;;;;;;;;;;;;;;2206430;67;1231;-64
2022/07/28 10:11:35;;;;;;;;;;;;;;;;;;2205959;59;1391;-63
2022/07/28 10:14:12;;;;;;;;;;;;;;;;;;2205842;67;1933;-65
2022/07/28 10:16:52;;;;;;;;;;;;;;;;;;2206071;67;1940;-65
2022/07/28 10:19:25;;;;;;;;;;;;;;;;;;2205852;59;1141;-65
2022/07/28 10:22:00;;;;;;;;;;;;;;;;;;2206004;67;1130;-64
2022/07/28 10:24:36;;;;;;;;;;;;;;;;;;2205878;67;1308;-63
2022/07/28 10:27:09;;;;;;;;;;;;;;;;;;2204876;67;1210;-63
2022/07/28 10:29:45;;;;;;;;;;;;;;;;;;2205318;67;1101;-65
2022/07/28 10:32:21;;;;;;;;;;;;;;;;;;2205449;67;1096;-65
2022/07/28 10:34:57;;;;;;;;;;;;;;;;;;2205378;59;1991;-64
2022/07/28 10:37:32;;;;;;;;;;;;;;;;;;2206313;59;2067;-65
2022/07/28 10:40:06;;;;;;;;;;;;;;;;;;2205996;67;1032;-65
2022/07/28 10:42:41;;;;;;;;;;;;;;;;;;2205830;67;1197;-63
2022/07/28 10:45:14;;;;;;;;;;;;;;;;;;2207143;67;1205;-62
2022/07/28 10:47:51;;;;;;;;;;;;;;;;;;2206468;67;2143;-64
2022/07/28 10:50:25;;;;;;;;;;;;;;;;;;2205650;59;1180;-65
2022/07/28 10:52:59;;;;;;;;;;;;;;;;;;2205153;67;1259;-62
2022/07/28 10:55:39;;;;;;;;;;;;;;;;;;2205378;59;2118;-62
2022/07/28 10:58:16;;;;;;;;;;;;;;;;;;2202759;67;1801;-64
2022/07/28 11:00:50;;;;;;;;;;;;;;;;;;2206749;67;1293;-63
2022/07/28 11:03:45;;;;;;;;;;;;;;;;;;2206662;59;1306;-63
2022/07/28 11:06:29;;;;;;;;;;;;;;;;;;2203591;67;1687;-64
2022/07/28 11:09:23;;;;;;;;;;;;;;;;;;2203239;67;1748;-63
2022/07/28 11:11:57;;;;;;;;;;;;;;;;;;2208646;59;1390;-65
2022/07/28 11:14:37;;;;;;;;;;;;;;;;;;2207350;59;1930;-65
2022/07/28 11:17:21;;;;;;;;;;;;;;;;;;2207107;59;2439;-62
2022/07/28 11:20:01;;;;;;;;;;;;;;;;;;2203288;67;1247;-64
2022/07/28 11:22:34;;;;;;;;;;;;;;;;;;2203183;67;1502;-63
2022/07/28 11:25:15;;;;;;;;;;;;;;;;;;2207638;67;1256;-63
2022/07/28 11:28:06;;;;;;;;;;;;;;;;;;2206179;67;1673;-63
2022/07/28 11:30:53;;;;;;;;;;;;;;;;;;2207500;67;1165;-63
2022/07/28 11:33:47;;;;;;;;;;;;;;;;;;2206376;67;1672;-61
2022/07/28 11:36:23;;;;;;;;;;;;;;;;;;2206774;60;1913;-63
2022/07/28 11:39:15;;;;;;;;;;;;;;;;;;2202575;59;1925;-63
2022/07/28 11:41:50;;;;;;;;;;;;;;;;;;2204642;67;2104;-65
2022/07/28 11:44:27;;;;;;;;;;;;;;;;;;2206868;67;1252;-64
2022/07/28 11:47:15;;;;;;;;;;;;;;;;;;2202984;67;1524;-64
2022/07/28 11:50:09;;;;;;;;;;;;;;;;;;2205054;67;1744;-64
2022/07/28 11:52:54;;;;;;;;;;;;;;;;;;2207450;67;2140;-65
2022/07/28 11:55:27;;;;;;;;;;;;;;;;;;2207683;59;2001;-65
2022/07/28 11:58:01;;;;;;;;;;;;;;;;;;2206854;67;1236;-66
2022/07/28 12:00:35;;;;;;;;;;;;;;;;;;2207617;67;1206;-65
2022/07/28 12:03:08;;;;;;;;;;;;;;;;;;2205843;59;1256;-65
2022/07/28 12:05:41;;;;;;;;;;;;;;;;;;2207199;67;1160;-65
2022/07/28 12:08:18;;;;;;;;;;;;;;;;;;2206398;67;1207;-64
2022/07/28 12:10:51;;;;;;;;;;;;;;;;;;2207427;59;1390;-64
2022/07/28 12:13:28;;;;;;;;;;;;;;;;;;2207167;67;1211;-65
2022/07/28 12:16:01;;;;;;;;;;;;;;;;;;2206465;59;2133;-65
2022/07/28 12:18:34;;;;;;;;;;;;;;;;;;2206910;67;1248;-65
2022/07/28 12:21:08;;;;;;;;;;;;;;;;;;2202567;67;1692;-65
2022/07/28 12:23:45;;;;;;;;;;;;;;;;;;2206264;67;1260;-64
2022/07/28 12:26:36;;;;;;;;;;;;;;;;;;2206799;67;1076;-64
2022/07/28 12:29:12;;;;;;;;;;;;;;;;;;2206119;67;1132;-63
2022/07/28 12:31:57;;;;;;;;;;;;;;;;;;2206338;67;1078;-62
2022/07/28 12:34:31;;;;;;;;;;;;;;;;;;2203125;67;1937;-64
2022/07/28 12:37:08;;;;;;;;;;;;;;;;;;2205440;59;1930;-64
2022/07/28 12:39:45;;;;;;;;;;;;;;;;;;2205534;67;1246;-64
2022/07/28 12:42:18;;;;;;;;;;;;;;;;;;2206435;67;1497;-64
2022/07/28 12:44:53;;;;;;;;;;;;;;;;;;2202483;67;1942;-65
2022/07/28 12:47:27;;;;;;;;;;;;;;;;;;2206200;67;1248;-64
2022/07/28 12:50:11;;;;;;;;;;;;;;;;;;2206438;67;1109;-63
2022/07/28 12:52:45;;;;;;;;;;;;;;;;;;2205368;59;2092;-64
2022/07/28 12:55:28;;;;;;;;;;;;;;;;;;2206619;59;1944;-64
2022/07/28 12:58:01;;;;;;;;;;;;;;;;;;2206004;67;1165;-65
2022/07/28 13:00:35;;;;;;;;;;;;;;;;;;2202434;67;1526;-65
2022/07/28 13:03:22;;;;;;;;;;;;;;;;;;2205788;59;1274;-63
2022/07/28 13:06:06;;;;;;;;;;;;;;;;;;2201180;59;1838;-65
2022/07/28 13:08:40;;;;;;;;;;;;;;;;;;2205632;67;1103;-63
2022/07/28 13:11:17;;;;;;;;;;;;;;;;;;2205637;59;1463;-63
2022/07/28 13:13:54;;;;;;;;;;;;;;;;;;2205635;67;1220;-65
2022/07/28 13:16:28;;;;;;;;;;;;;;;;;;2201541;59;2064;-64
2022/07/28 13:19:03;;;;;;;;;;;;;;;;;;2205505;67;1478;-64
2022/07/28 13:21:40;;;;;;;;;;;;;;;;;;2201989;59;1774;-64
2022/07/28 13:24:14;;;;;;;;;;;;;;;;;;2205940;59;2028;-61
2022/07/28 13:26:50;;;;;;;;;;;;;;;;;;2206084;67;1737;-64
2022/07/28 13:29:24;;;;;;;;;;;;;;;;;;2206325;67;1168;-63
2022/07/28 13:31:58;;;;;;;;;;;;;;;;;;2205392;67;1215;-62
2022/07/28 13:34:31;;;;;;;;;;;;;;;;;;2205994;67;1226;-65
2022/07/28 13:37:04;;;;;;;;;;;;;;;;;;2201555;67;1989;-65
2022/07/28 13:39:37;;;;;;;;;;;;;;;;;;2202047;67;1692;-64
2022/07/28 13:42:14;;;;;;;;;;;;;;;;;;2206012;59;1325;-63
2022/07/28 13:44:47;;;;;;;;;;;;;;;;;;2205833;59;1297;-65
2022/07/28 13:47:20;;;;;;;;;;;;;;;;;;2205442;67;1211;-64
2022/07/28 13:49:53;;;;;;;;;;;;;;;;;;2206305;67;1153;-62
2022/07/28 13:52:27;;;;;;;;;;;;;;;;;;2205600;67;1158;-65
2022/07/28 13:55:01;;;;;;;;;;;;;;;;;;2205625;59;1930;-64
2022/07/28 13:57:37;;;;;;;;;;;;;;;;;;2205341;67;1276;-63
2022/07/28 14:00:11;;;;;;;;;;;;;;;;;;2205718;67;1217;-61
2022/07/28 14:02:44;;;;;;;;;;;;;;;;;;2202770;59;1501;-63
2022/07/28 14:05:18;;;;;;;;;;;;;;;;;;2205498;67;1243;-65
2022/07/28 14:07:51;;;;;;;;;;;;;;;;;;2205970;67;1151;-63
2022/07/28 14:10:24;;;;;;;;;;;;;;;;;;2205356;67;1172;-65
2022/07/28 14:13:00;;;;;;;;;;;;;;;;;;2205976;67;2362;-64
2022/07/28 14:15:34;;;;;;;;;;;;;;;;;;2204828;59;2100;-63
2022/07/28 14:18:07;;;;;;;;;;;;;;;;;;2205343;59;1230;-64
2022/07/28 14:20:40;;;;;;;;;;;;;;;;;;2205869;67;1112;-64
2022/07/28 14:23:14;;;;;;;;;;;;;;;;;;2205073;67;1286;-65
2022/07/28 14:25:47;;;;;;;;;;;;;;;;;;2205696;67;1270;-64
2022/07/28 14:28:24;;;;;;;;;;;;;;;;;;2202399;67;1522;-64
2022/07/28 14:30:57;;;;;;;;;;;;;;;;;;2205933;67;1241;-65
2022/07/28 14:33:31;;;;;;;;;;;;;;;;;;2204691;67;1206;-65
2022/07/28 14:36:05;;;;;;;;;;;;;;;;;;2202212;67;1940;-60
2022/07/28 14:38:38;;;;;;;;;;;;;;;;;;2205864;59;2015;-65
2022/07/28 14:41:11;;;;;;;;;;;;;;;;;;2207074;67;1077;-64
2022/07/28 14:43:48;;;;;;;;;;;;;;;;;;2202244;67;1266;-64
2022/07/28 14:46:21;;;;;;;;;;;;;;;;;;2206531;67;1106;-64
2022/07/28 14:48:54;;;;;;;;;;;;;;;;;;2206516;67;1267;-64
2022/07/28 14:51:28;;;;;;;;;;;;;;;;;;2206110;67;1207;-63
2022/07/28 14:54:01;;;;;;;;;;;;;;;;;;2203051;60;1592;-64
2022/07/28 14:56:35;;;;;;;;;;;;;;;;;;2205552;67;1984;-65
2022/07/28 14:59:11;;;;;;;;;;;;;;;;;;2206808;67;1018;-64
2022/07/28 15:01:46;;;;;;;;;;;;;;;;;;2205613;67;1175;-63
2022/07/28 15:04:19;;;;;;;;;;;;;;;;;;2206151;59;1253;-61
2022/07/28 15:06:52;;;;;;;;;;;;;;;;;;2205264;67;1526;-62
2022/07/28 15:09:26;;;;;;;;;;;;;;;;;;2205237;67;1239;-64
2022/07/28 15:11:59;;;;;;;;;;;;;;;;;;2206146;59;1449;-64
2022/07/28 15:33:24;;;;;;;;;;;;;;;;;;2386257;53;1903;-74
2022/07/28 15:36:00;;;;;;;;;;;;;;;;;;2204798;67;1938;-75
2022/07/28 15:38:33;;;;;;;;;;;;;;;;;;2204512;67;2053;-74
2022/07/28 15:41:07;;;;;;;;;;;;;;;;;;2205775;59;1241;-74
2022/07/28 15:43:40;;;;;;;;;;;;;;;;;;2205503;59;1253;-74
2022/07/28 15:46:14;;;;;;;;;;;;;;;;;;2203671;67;1097;-74
2022/07/28 16:24:49;;;;;;;;;;;;;;;;;;2398587;53;1855;-54
2022/07/28 16:27:22;;;;;;;;;;;;;;;;;;2202769;59;2120;-56
2022/07/28 16:29:55;;;;;;;;;;;;;;;;;;2205336;59;1267;-55
2022/07/28 16:32:28;;;;;;;;;;;;;;;;;;2203957;59;1101;-54
2022/07/28 16:35:02;;;;;;;;;;;;;;;;;;2204051;59;1278;-56
2022/07/28 16:37:35;;;;;;;;;;;;;;;;;;2201332;59;2045;-55
2022/07/28 16:40:12;;;;;;;;;;;;;;;;;;2198931;67;1034;-55
2022/07/28 16:42:45;;;;;;;;;;;;;;;;;;2200781;67;1183;-55
2022/07/28 16:45:18;;;;;;;;;;;;;;;;;;2200835;59;1257;-54
2022/07/28 16:47:51;;;;;;;;;;;;;;;;;;2200345;67;1086;-54
2022/07/28 16:50:26;;;;;;;;;;;;;;;;;;2199576;67;1102;-56
2022/07/28 16:52:59;;;;;;;;;;;;;;;;;;2200768;67;1282;-55
2022/07/28 16:55:35;;;;;;;;;;;;;;;;;;2201645;67;1987;-55
2022/07/28 16:58:08;;;;;;;;;;;;;;;;;;2201053;67;1127;-55
2022/07/28 17:00:41;;;;;;;;;;;;;;;;;;2199919;59;1207;-57
2022/07/28 17:03:15;;;;;;;;;;;;;;;;;;2199688;67;1268;-54
2022/07/28 17:05:48;;;;;;;;;;;;;;;;;;2199640;67;1258;-54
2022/07/28 17:08:22;;;;;;;;;;;;;;;;;;2200935;67;1125;-57
2022/07/28 17:10:58;;;;;;;;;;;;;;;;;;2199712;59;1713;-54
2022/07/28 17:13:31;;;;;;;;;;;;;;;;;;2200288;67;1169;-55
2022/07/28 17:16:05;;;;;;;;;;;;;;;;;;2200277;59;2009;-54
2022/07/28 17:18:38;;;;;;;;;;;;;;;;;;2199574;67;1276;-54
2022/07/28 17:21:11;;;;;;;;;;;;;;;;;;2199493;67;1487;-54
2022/07/28 17:23:44;;;;;;;;;;;;;;;;;;2199729;67;1201;-54
2022/07/28 17:26:20;;;;;;;;;;;;;;;;;;2200623;59;1317;-55
2022/07/28 17:28:54;;;;;;;;;;;;;;;;;;2200255;67;1322;-58
2022/07/28 17:31:27;;;;;;;;;;;;;;;;;;2201897;59;1297;-56
2022/07/28 17:34:00;;;;;;;;;;;;;;;;;;2199361;67;1302;-57
2022/07/28 17:36:34;;;;;;;;;;;;;;;;;;2196650;67;1984;-54
2022/07/28 17:39:08;;;;;;;;;;;;;;;;;;2199787;59;2160;-55
2022/07/28 17:41:44;;;;;;;;;;;;;;;;;;2199727;67;1135;-55
2022/07/28 17:44:17;;;;;;;;;;;;;;;;;;2200626;67;1150;-54
2022/07/28 17:46:50;;;;;;;;;;;;;;;;;;2198874;67;1342;-56
2022/07/28 17:49:24;;;;;;;;;;;;;;;;;;2200721;67;1289;-55
2022/07/28 17:51:57;;;;;;;;;;;;;;;;;;2201039;67;1297;-55
2022/07/28 17:55:32;;;;;;;;;;;;;;;;;;2201002;67;1176;-57
2022/07/28 17:57:26;;;;;;;;;;;;;;;;;;2198679;67;2042;-55
2022/07/28 17:59:59;;;;;;;;;;;;;;;;;;2199864;67;1223;-54
2022/07/28 18:02:32;;;;;;;;;;;;;;;;;;2204742;59;1245;-55
2022/07/28 18:05:06;;;;;;;;;;;;;;;;;;2205206;67;1324;-55
2022/07/28 18:07:39;;;;;;;;;;;;;;;;;;2201438;67;1201;-56
2022/07/28 18:10:12;;;;;;;;;;;;;;;;;;2200748;59;1575;-54
2022/07/28 18:12:49;;;;;;;;;;;;;;;;;;2202613;59;1679;-54
2022/07/28 18:15:22;;;;;;;;;;;;;;;;;;2202365;59;2049;-54
2022/07/28 18:17:55;;;;;;;;;;;;;;;;;;2202495;67;1937;-55
2022/07/28 18:20:29;;;;;;;;;;;;;;;;;;2202206;67;1279;-54
2022/07/28 18:23:02;;;;;;;;;;;;;;;;;;2201846;67;1187;-54
2022/07/28 18:25:35;;;;;;;;;;;;;;;;;;2201702;59;1239;-54
2022/07/28 18:28:11;;;;;;;;;;;;;;;;;;2200118;60;1070;-54
2022/07/28 18:30:45;;;;;;;;;;;;;;;;;;2202023;67;1122;-54
2022/07/28 18:33:19;;;;;;;;;;;;;;;;;;2200528;59;2108;-54
2022/07/28 18:35:52;;;;;;;;;;;;;;;;;;2200818;59;1255;-59
2022/07/28 18:38:25;;;;;;;;;;;;;;;;;;2201084;59;2008;-53
2022/07/28 18:40:58;;;;;;;;;;;;;;;;;;2199677;67;1204;-53
2022/07/28 18:43:35;;;;;;;;;;;;;;;;;;2200287;67;1240;-53
2022/07/28 18:46:08;;;;;;;;;;;;;;;;;;2201170;67;1252;-54
2022/07/28 18:48:41;;;;;;;;;;;;;;;;;;2200695;59;1729;-53
2022/07/28 18:51:14;;;;;;;;;;;;;;;;;;2200625;67;1116;-57
2022/07/28 18:53:47;;;;;;;;;;;;;;;;;;2201073;67;1277;-54